createdAt,value
2022-09-23T00:00:39.074Z,1018.03
2022-09-23T00:01:39.104Z,1018.03
2022-09-23T00:02:39.122Z,1017.99
2022-09-23T00:03:39.045Z,1018.01
2022-09-23T00:04:39.034Z,1017.96
2022-09-23T00:05:39.024Z,1017.99
2022-09-23T00:06:39.014Z,1017.97
2022-09-23T00:07:39.007Z,1017.92
2022-09-23T00:08:38.994Z,1017.98
2022-09-23T00:09:38.991Z,1017.98
2022-09-23T00:10:38.989Z,1017.97
2022-09-23T00:11:38.971Z,1017.92
2022-09-23T00:12:38.956Z,1017.93
2022-09-23T00:13:38.943Z,1017.92
2022-09-23T00:14:38.936Z,1017.91
2022-09-23T00:15:38.928Z,1017.93
2022-09-23T00:16:38.949Z,1017.92
2022-09-23T00:17:38.906Z,1017.91
2022-09-23T00:18:38.894Z,1017.90
2022-09-23T00:19:38.913Z,1017.87
2022-09-23T00:20:38.876Z,1017.92
2022-09-23T00:21:38.865Z,1017.86
2022-09-23T00:22:38.855Z,1017.90
2022-09-23T00:23:38.847Z,1017.88
2022-09-23T00:24:38.835Z,1017.90
2022-09-23T00:25:38.824Z,1017.89
2022-09-23T00:26:38.813Z,1017.90
2022-09-23T00:27:38.807Z,1017.94
2022-09-23T00:28:38.795Z,1017.93
2022-09-23T00:29:38.784Z,1017.88
2022-09-23T00:30:38.835Z,1017.90
2022-09-23T00:31:38.764Z,1017.85
2022-09-23T00:32:38.754Z,1017.88
2022-09-23T00:33:38.750Z,1017.85
2022-09-23T00:34:38.735Z,1017.84
2022-09-23T00:35:38.730Z,1017.85
2022-09-23T00:36:38.715Z,1017.84
2022-09-23T00:37:38.703Z,1017.77
2022-09-23T00:38:38.702Z,1017.82
2022-09-23T00:39:38.686Z,1017.79
2022-09-23T00:40:38.690Z,1017.78
2022-09-23T00:41:38.663Z,1017.77
2022-09-23T00:42:38.652Z,1017.79
2022-09-23T00:43:38.644Z,1017.77
2022-09-23T00:44:38.634Z,1017.77
2022-09-23T00:45:38.692Z,1017.78
2022-09-23T00:46:38.613Z,1017.74
2022-09-23T00:47:38.605Z,1017.75
2022-09-23T00:48:38.592Z,1017.76
2022-09-23T00:49:38.582Z,1017.78
2022-09-23T00:50:38.573Z,1017.78
2022-09-23T00:51:38.587Z,1017.76
2022-09-23T00:52:38.566Z,1017.77
2022-09-23T00:53:38.540Z,1017.76
2022-09-23T00:54:38.531Z,1017.77
2022-09-23T00:55:38.522Z,1017.79
2022-09-23T00:56:38.510Z,1017.79
2022-09-23T00:57:38.501Z,1017.79
2022-09-23T00:58:38.491Z,1017.76
2022-09-23T00:59:38.483Z,1017.75
2022-09-23T01:00:38.470Z,1017.74
2022-09-23T01:01:38.511Z,1017.75
2022-09-23T01:02:38.515Z,1017.70
2022-09-23T01:03:38.439Z,1017.69
2022-09-23T01:04:38.430Z,1017.66
2022-09-23T01:05:38.434Z,1017.65
2022-09-23T01:06:38.409Z,1017.62
2022-09-23T01:07:38.397Z,1017.64
2022-09-23T01:08:38.390Z,1017.58
2022-09-23T01:09:38.377Z,1017.59
2022-09-23T01:10:38.367Z,1017.57
2022-09-23T01:11:38.363Z,1017.60
2022-09-23T01:12:38.345Z,1017.58
2022-09-23T01:13:38.338Z,1017.62
2022-09-23T01:14:38.326Z,1017.58
2022-09-23T01:15:38.315Z,1017.51
2022-09-23T01:16:38.345Z,1017.55
2022-09-23T01:17:38.298Z,1017.54
2022-09-23T01:18:38.284Z,1017.54
2022-09-23T01:19:38.274Z,1017.52
2022-09-23T01:20:38.264Z,1017.54
2022-09-23T01:21:38.251Z,1017.55
2022-09-23T01:22:38.242Z,1017.53
2022-09-23T01:23:38.231Z,1017.54
2022-09-23T01:24:38.223Z,1017.52
2022-09-23T01:25:38.209Z,1017.51
2022-09-23T01:26:38.203Z,1017.50
2022-09-23T01:27:38.190Z,1017.47
2022-09-23T01:28:38.181Z,1017.47
2022-09-23T01:29:38.173Z,1017.45
2022-09-23T01:30:38.238Z,1017.47
2022-09-23T01:31:38.148Z,1017.46
2022-09-23T01:32:38.138Z,1017.48
2022-09-23T01:33:38.127Z,1017.46
2022-09-23T01:34:38.116Z,1017.44
2022-09-23T01:35:38.109Z,1017.43
2022-09-23T01:36:38.097Z,1017.40
2022-09-23T01:37:38.086Z,1017.43
2022-09-23T01:38:38.075Z,1017.40
2022-09-23T01:39:38.064Z,1017.43
2022-09-23T01:40:38.103Z,1017.43
2022-09-23T01:41:38.039Z,1017.45
2022-09-23T01:42:38.031Z,1017.40
2022-09-23T01:43:45.177Z,1017.38
2022-09-23T01:45:30.938Z,1017.40
2022-09-23T01:46:30.911Z,1017.39
2022-09-23T01:48:34.949Z,1017.38
2022-09-23T01:49:34.878Z,1017.36
2022-09-23T01:51:49.941Z,1017.37
2022-09-23T01:52:49.914Z,1017.32
2022-09-23T01:54:42.817Z,1017.35
2022-09-23T01:55:42.822Z,1017.36
2022-09-23T01:57:35.720Z,1017.34
2022-09-23T01:58:35.695Z,1017.36
2022-09-23T02:00:39.677Z,1017.33
2022-09-23T02:01:39.694Z,1017.33
2022-09-23T02:03:54.689Z,1017.34
2022-09-23T02:04:54.676Z,1017.33
2022-09-23T02:06:59.134Z,1017.26
2022-09-23T02:07:59.110Z,1017.29
2022-09-23T02:08:59.103Z,1017.23
2022-09-23T02:09:59.090Z,1017.22
2022-09-23T02:10:59.084Z,1017.26
2022-09-23T02:11:59.066Z,1017.23
2022-09-23T02:12:59.059Z,1017.22
2022-09-23T02:13:59.049Z,1017.22
2022-09-23T02:14:59.040Z,1017.18
2022-09-23T02:15:59.028Z,1017.20
2022-09-23T02:16:59.080Z,1017.17
2022-09-23T02:17:59.003Z,1017.20
2022-09-23T02:18:59.053Z,1017.23
2022-09-23T02:19:58.993Z,1017.22
2022-09-23T02:20:58.976Z,1017.17
2022-09-23T02:21:58.966Z,1017.17
2022-09-23T02:22:58.964Z,1017.16
2022-09-23T02:23:58.942Z,1017.13
2022-09-23T02:24:58.933Z,1017.09
2022-09-23T02:25:58.925Z,1017.09
2022-09-23T02:26:58.915Z,1017.08
2022-09-23T02:27:58.902Z,1017.07
2022-09-23T02:28:58.901Z,1017.07
2022-09-23T02:29:58.885Z,1017.07
2022-09-23T02:30:58.873Z,1017.08
2022-09-23T02:31:58.900Z,1017.05
2022-09-23T02:32:58.854Z,1017.04
2022-09-23T02:33:58.839Z,1017.04
2022-09-23T02:34:58.829Z,1017.05
2022-09-23T02:35:58.820Z,1017.04
2022-09-23T02:36:58.807Z,1016.98
2022-09-23T02:37:58.797Z,1016.93
2022-09-23T02:38:58.795Z,1016.93
2022-09-23T02:39:58.778Z,1016.97
2022-09-23T02:40:58.763Z,1016.89
2022-09-23T02:41:58.755Z,1016.91
2022-09-23T02:42:58.778Z,1016.91
2022-09-23T02:43:58.733Z,1016.90
2022-09-23T02:44:58.723Z,1016.87
2022-09-23T02:45:58.783Z,1016.89
2022-09-23T02:46:58.697Z,1016.90
2022-09-23T02:47:58.692Z,1016.88
2022-09-23T02:48:58.688Z,1016.88
2022-09-23T02:49:58.673Z,1016.84
2022-09-23T02:50:58.658Z,1016.84
2022-09-23T02:51:58.653Z,1016.84
2022-09-23T02:52:58.636Z,1016.79
2022-09-23T02:53:58.667Z,1016.77
2022-09-23T02:54:58.623Z,1016.75
2022-09-23T02:55:58.606Z,1016.75
2022-09-23T02:56:58.596Z,1016.74
2022-09-23T02:57:58.579Z,1016.73
2022-09-23T02:58:58.571Z,1016.73
2022-09-23T02:59:58.560Z,1016.71
2022-09-23T03:00:58.595Z,1016.69
2022-09-23T03:01:58.596Z,1016.72
2022-09-23T03:02:58.529Z,1016.73
2022-09-23T03:03:58.519Z,1016.72
2022-09-23T03:04:58.506Z,1016.70
2022-09-23T03:05:58.496Z,1016.71
2022-09-23T03:06:58.487Z,1016.71
2022-09-23T03:07:58.477Z,1016.72
2022-09-23T03:08:58.482Z,1016.70
2022-09-23T03:09:58.449Z,1016.67
2022-09-23T03:10:58.446Z,1016.70
2022-09-23T03:11:58.461Z,1016.70
2022-09-23T03:12:58.433Z,1016.69
2022-09-23T03:13:58.412Z,1016.69
2022-09-23T03:14:58.413Z,1016.70
2022-09-23T03:15:58.387Z,1016.69
2022-09-23T03:16:58.374Z,1016.66
2022-09-23T03:17:58.376Z,1016.69
2022-09-23T03:18:58.363Z,1016.69
2022-09-23T03:19:58.347Z,1016.66
2022-09-23T03:20:58.333Z,1016.65
2022-09-23T03:21:58.327Z,1016.63
2022-09-23T03:22:58.311Z,1016.66
2022-09-23T03:23:58.304Z,1016.64
2022-09-23T03:24:58.295Z,1016.66
2022-09-23T03:25:58.283Z,1016.64
2022-09-23T03:26:58.274Z,1016.61
2022-09-23T03:27:58.260Z,1016.59
2022-09-23T03:28:58.253Z,1016.59
2022-09-23T03:29:58.238Z,1016.55
2022-09-23T03:30:58.236Z,1016.55
2022-09-23T03:31:58.260Z,1016.55
2022-09-23T03:32:58.210Z,1016.59
2022-09-23T03:33:58.196Z,1016.55
2022-09-23T03:34:58.190Z,1016.56
2022-09-23T03:35:58.173Z,1016.57
2022-09-23T03:36:58.162Z,1016.54
2022-09-23T03:37:58.157Z,1016.51
2022-09-23T03:38:58.139Z,1016.52
2022-09-23T03:39:58.131Z,1016.53
2022-09-23T03:40:58.119Z,1016.53
2022-09-23T03:41:58.110Z,1016.53
2022-09-23T03:42:58.099Z,1016.51
2022-09-23T03:43:58.087Z,1016.52
2022-09-23T03:44:58.075Z,1016.51
2022-09-23T03:45:58.125Z,1016.45
2022-09-23T03:46:58.055Z,1016.51
2022-09-23T03:47:58.046Z,1016.44
2022-09-23T03:48:58.033Z,1016.48
2022-09-23T03:49:58.022Z,1016.46
2022-09-23T03:50:58.011Z,1016.44
2022-09-23T03:51:58.000Z,1016.43
2022-09-23T03:52:57.991Z,1016.45
2022-09-23T03:53:57.980Z,1016.41
2022-09-23T03:54:57.975Z,1016.42
2022-09-23T03:55:57.954Z,1016.44
2022-09-23T03:56:57.946Z,1016.40
2022-09-23T03:57:57.942Z,1016.41
2022-09-23T03:58:57.924Z,1016.40
2022-09-23T03:59:57.917Z,1016.39
2022-09-23T04:00:57.951Z,1016.38
2022-09-23T04:01:57.984Z,1016.37
2022-09-23T04:02:57.877Z,1016.38
2022-09-23T04:03:57.874Z,1016.39
2022-09-23T04:04:57.859Z,1016.36
2022-09-23T04:05:57.848Z,1016.36
2022-09-23T04:06:57.840Z,1016.33
2022-09-23T04:07:57.826Z,1016.32
2022-09-23T04:08:57.815Z,1016.31
2022-09-23T04:09:57.804Z,1016.32
2022-09-23T04:10:57.797Z,1016.32
2022-09-23T04:11:57.785Z,1016.29
2022-09-23T04:12:57.766Z,1016.28
2022-09-23T04:13:57.762Z,1016.28
2022-09-23T04:14:57.753Z,1016.24
2022-09-23T04:15:57.774Z,1016.23
2022-09-23T04:16:57.729Z,1016.21
2022-09-23T04:17:57.721Z,1016.21
2022-09-23T04:18:57.703Z,1016.25
2022-09-23T04:19:57.706Z,1016.20
2022-09-23T04:20:57.694Z,1016.23
2022-09-23T04:21:57.671Z,1016.23
2022-09-23T04:22:57.664Z,1016.21
2022-09-23T04:23:57.660Z,1016.20
2022-09-23T04:24:57.641Z,1016.20
2022-09-23T04:25:57.626Z,1016.24
2022-09-23T04:26:57.618Z,1016.22
2022-09-23T04:27:57.614Z,1016.21
2022-09-23T04:28:57.603Z,1016.23
2022-09-23T04:29:57.581Z,1016.21
2022-09-23T04:30:57.577Z,1016.21
2022-09-23T04:31:57.582Z,1016.17
2022-09-23T04:32:57.554Z,1016.20
2022-09-23T04:33:57.543Z,1016.21
2022-09-23T04:34:57.533Z,1016.21
2022-09-23T04:35:57.520Z,1016.19
2022-09-23T04:36:57.510Z,1016.13
2022-09-23T04:37:57.504Z,1016.16
2022-09-23T04:38:57.487Z,1016.15
2022-09-23T04:39:57.477Z,1016.15
2022-09-23T04:40:57.472Z,1016.12
2022-09-23T04:41:57.452Z,1016.14
2022-09-23T04:42:57.440Z,1016.14
2022-09-23T04:43:57.435Z,1016.14
2022-09-23T04:44:57.423Z,1016.13
2022-09-23T04:45:57.412Z,1016.11
2022-09-23T04:46:57.431Z,1016.12
2022-09-23T04:47:57.388Z,1016.09
2022-09-23T04:48:57.379Z,1016.09
2022-09-23T04:49:59.829Z,1016.06
2022-09-23T04:50:57.363Z,1016.06
2022-09-23T04:51:57.344Z,1016.07
2022-09-23T04:52:57.327Z,1016.04
2022-09-23T04:53:57.322Z,1016.03
2022-09-23T04:54:57.319Z,1016.09
2022-09-23T04:55:57.299Z,1016.12
2022-09-23T04:56:57.289Z,1016.08
2022-09-23T04:57:57.283Z,1016.10
2022-09-23T04:58:57.264Z,1016.09
2022-09-23T04:59:57.253Z,1016.12
2022-09-23T05:01:00.520Z,1016.10
2022-09-23T05:01:57.295Z,1016.10
2022-09-23T05:02:57.224Z,1016.11
2022-09-23T05:03:57.219Z,1016.10
2022-09-23T05:04:57.202Z,1016.08
2022-09-23T05:05:57.191Z,1016.08
2022-09-23T05:07:02.218Z,1016.08
2022-09-23T05:07:57.172Z,1016.08
2022-09-23T05:08:57.157Z,1016.07
2022-09-23T05:09:57.147Z,1016.10
2022-09-23T05:10:57.136Z,1016.09
2022-09-23T05:11:57.130Z,1016.11
2022-09-23T05:12:57.463Z,1016.12
2022-09-23T05:13:57.105Z,1016.11
2022-09-23T05:14:57.097Z,1016.09
2022-09-23T05:15:57.137Z,1016.05
2022-09-23T05:16:57.074Z,1016.07
2022-09-23T05:17:57.069Z,1016.07
2022-09-23T05:18:57.051Z,1016.06
2022-09-23T05:19:57.037Z,1016.06
2022-09-23T05:20:57.025Z,1016.07
2022-09-23T05:21:57.015Z,1016.10
2022-09-23T05:22:57.005Z,1016.07
2022-09-23T05:23:56.991Z,1016.10
2022-09-23T05:24:56.989Z,1016.09
2022-09-23T05:25:56.970Z,1016.10
2022-09-23T05:26:56.953Z,1016.08
2022-09-23T05:27:56.949Z,1016.07
2022-09-23T05:28:56.939Z,1016.10
2022-09-23T05:29:56.926Z,1016.08
2022-09-23T05:30:56.953Z,1016.10
2022-09-23T05:31:56.939Z,1016.10
2022-09-23T05:32:56.888Z,1016.14
2022-09-23T05:33:56.882Z,1016.11
2022-09-23T05:34:56.875Z,1016.14
2022-09-23T05:35:56.860Z,1016.08
2022-09-23T05:36:56.849Z,1016.10
2022-09-23T05:37:56.840Z,1016.13
2022-09-23T05:38:56.828Z,1016.12
2022-09-23T05:39:56.811Z,1016.15
2022-09-23T05:40:56.803Z,1016.14
2022-09-23T05:41:56.793Z,1016.12
2022-09-23T05:42:56.783Z,1016.15
2022-09-23T05:43:56.770Z,1016.11
2022-09-23T05:44:56.761Z,1016.13
2022-09-23T05:45:56.750Z,1016.11
2022-09-23T05:46:56.893Z,1016.10
2022-09-23T05:47:56.734Z,1016.07
2022-09-23T05:49:01.127Z,1016.06
2022-09-23T05:49:59.898Z,1016.07
2022-09-23T05:50:56.694Z,1016.09
2022-09-23T05:51:56.713Z,1016.11
2022-09-23T05:52:56.679Z,1016.10
2022-09-23T05:53:56.668Z,1016.19
2022-09-23T05:54:56.659Z,1016.15
2022-09-23T05:55:56.725Z,1016.08
2022-09-23T05:56:57.683Z,1016.12
2022-09-23T05:57:56.631Z,1016.07
2022-09-23T05:58:56.621Z,1016.07
2022-09-23T05:59:56.610Z,1016.03
2022-09-23T06:00:56.600Z,1016.06
2022-09-23T06:01:56.801Z,1016.05
2022-09-23T06:02:56.646Z,1016.05
2022-09-23T06:03:56.571Z,1016.05
2022-09-23T06:04:56.562Z,1016.04
2022-09-23T06:05:56.558Z,1016.04
2022-09-23T06:06:57.735Z,1016.03
2022-09-23T06:07:56.537Z,1016.02
2022-09-23T06:08:56.531Z,1016.07
2022-09-23T06:09:56.518Z,1016.04
2022-09-23T06:10:56.506Z,1016.06
2022-09-23T06:11:56.499Z,1016.08
2022-09-23T06:12:56.484Z,1016.09
2022-09-23T06:13:56.481Z,1016.09
2022-09-23T06:14:56.465Z,1016.10
2022-09-23T06:15:56.524Z,1016.12
2022-09-23T06:16:56.467Z,1016.07
2022-09-23T06:17:56.443Z,1016.06
2022-09-23T06:18:56.435Z,1016.10
2022-09-23T06:19:56.426Z,1016.07
2022-09-23T06:20:56.410Z,1016.09
2022-09-23T06:21:56.407Z,1016.11
2022-09-23T06:22:56.421Z,1016.08
2022-09-23T06:23:57.278Z,1016.08
2022-09-23T06:24:56.383Z,1016.07
2022-09-23T06:25:56.374Z,1016.10
2022-09-23T06:26:56.372Z,1016.08
2022-09-23T06:27:56.362Z,1016.07
2022-09-23T06:28:56.349Z,1016.13
2022-09-23T06:29:56.346Z,1016.09
2022-09-23T06:30:56.386Z,1016.12
2022-09-23T06:31:56.419Z,1016.10
2022-09-23T06:32:56.320Z,1016.10
2022-09-23T06:34:08.509Z,1016.09
2022-09-23T06:34:56.297Z,1016.08
2022-09-23T06:35:59.764Z,1016.10
2022-09-23T06:36:56.290Z,1016.14
2022-09-23T06:37:56.276Z,1016.13
2022-09-23T06:38:56.268Z,1016.13
2022-09-23T06:39:56.260Z,1016.18
2022-09-23T06:40:56.252Z,1016.14
2022-09-23T06:41:56.243Z,1016.15
2022-09-23T06:42:56.239Z,1016.18
2022-09-23T06:43:56.234Z,1016.17
2022-09-23T06:44:56.224Z,1016.16
2022-09-23T06:45:56.218Z,1016.14
2022-09-23T06:46:56.271Z,1016.17
2022-09-23T06:47:56.212Z,1016.18
2022-09-23T06:48:56.191Z,1016.19
2022-09-23T06:49:56.191Z,1016.19
2022-09-23T06:50:56.184Z,1016.19
2022-09-23T06:51:56.172Z,1016.17
2022-09-23T06:52:56.304Z,1016.21
2022-09-23T06:53:56.175Z,1016.21
2022-09-23T06:54:56.156Z,1016.20
2022-09-23T06:55:56.142Z,1016.18
2022-09-23T06:56:56.137Z,1016.18
2022-09-23T06:57:56.136Z,1016.18
2022-09-23T06:58:56.117Z,1016.18
2022-09-23T06:59:56.116Z,1016.13
2022-09-23T07:00:56.107Z,1016.19
2022-09-23T07:01:56.164Z,1016.18
2022-09-23T07:02:56.136Z,1016.15
2022-09-23T07:03:56.082Z,1016.16
2022-09-23T07:04:56.087Z,1016.18
2022-09-23T07:05:56.068Z,1016.19
2022-09-23T07:06:56.064Z,1016.14
2022-09-23T07:07:56.052Z,1016.14
2022-09-23T07:08:56.065Z,1016.15
2022-09-23T07:09:56.032Z,1016.19
2022-09-23T07:10:56.028Z,1016.20
2022-09-23T07:11:56.022Z,1016.21
2022-09-23T07:12:56.007Z,1016.19
2022-09-23T07:13:56.010Z,1016.23
2022-09-23T07:14:55.995Z,1016.24
2022-09-23T07:15:56.048Z,1016.23
2022-09-23T07:16:55.975Z,1016.22
2022-09-23T07:17:55.973Z,1016.21
2022-09-23T07:18:55.972Z,1016.21
2022-09-23T07:19:55.957Z,1016.21
2022-09-23T07:20:55.954Z,1016.22
2022-09-23T07:21:55.941Z,1016.19
2022-09-23T07:22:55.932Z,1016.19
2022-09-23T07:23:55.924Z,1016.21
2022-09-23T07:24:55.930Z,1016.19
2022-09-23T07:25:55.926Z,1016.19
2022-09-23T07:26:55.903Z,1016.19
2022-09-23T07:27:55.941Z,1016.18
2022-09-23T07:28:55.888Z,1016.17
2022-09-23T07:29:55.879Z,1016.18
2022-09-23T07:31:00.292Z,1016.16
2022-09-23T07:32:05.984Z,1016.13
2022-09-23T07:32:55.923Z,1016.12
2022-09-23T07:33:55.849Z,1016.10
2022-09-23T07:34:55.842Z,1016.10
2022-09-23T07:35:55.838Z,1016.07
2022-09-23T07:36:55.824Z,1016.11
2022-09-23T07:37:55.815Z,1016.06
2022-09-23T07:38:55.813Z,1016.08
2022-09-23T07:39:55.807Z,1016.08
2022-09-23T07:40:55.795Z,1016.08
2022-09-23T07:41:55.789Z,1016.09
2022-09-23T07:42:55.797Z,1016.06
2022-09-23T07:43:55.767Z,1016.06
2022-09-23T07:45:02.944Z,1016.07
2022-09-23T07:46:48.930Z,1016.07
2022-09-23T07:47:48.856Z,1016.05
2022-09-23T07:49:41.978Z,1016.09
2022-09-23T07:50:41.952Z,1016.10
2022-09-23T07:52:35.058Z,1016.08
2022-09-23T07:53:35.044Z,1016.09
2022-09-23T07:55:27.963Z,1016.02
2022-09-23T07:56:27.945Z,1016.06
2022-09-23T07:58:21.045Z,1016.04
2022-09-23T07:59:21.031Z,1016.07
2022-09-23T08:01:25.053Z,1016.09
2022-09-23T08:02:25.024Z,1016.06
2022-09-23T08:04:18.136Z,1016.10
2022-09-23T08:05:18.130Z,1016.12
2022-09-23T08:07:11.234Z,1016.09
2022-09-23T08:08:11.223Z,1016.14
2022-09-23T08:10:04.335Z,1016.11
2022-09-23T08:11:04.313Z,1016.10
2022-09-23T08:12:57.418Z,1016.06
2022-09-23T08:13:57.399Z,1016.05
2022-09-23T08:16:01.531Z,1016.02
2022-09-23T08:17:01.427Z,1016.05
2022-09-23T08:20:05.407Z,1016.04
2022-09-23T08:21:58.515Z,1016.03
2022-09-23T08:22:58.498Z,1016.04
2022-09-23T08:24:52.836Z,1016.06
2022-09-23T08:25:51.398Z,1016.08
2022-09-23T08:27:44.338Z,1016.08
2022-09-23T08:28:44.322Z,1016.02
2022-09-23T08:30:48.397Z,1016.01
2022-09-23T08:31:48.346Z,1016.00
2022-09-23T08:33:52.832Z,1015.98
2022-09-23T08:34:52.813Z,1016.00
2022-09-23T08:35:52.805Z,1015.98
2022-09-23T08:36:52.801Z,1015.98
2022-09-23T08:37:52.791Z,1015.98
2022-09-23T08:38:52.790Z,1015.94
2022-09-23T08:39:52.793Z,1015.91
2022-09-23T08:40:52.771Z,1015.89
2022-09-23T08:41:57.494Z,1015.89
2022-09-23T08:42:52.759Z,1015.92
2022-09-23T08:43:52.754Z,1015.90
2022-09-23T08:44:52.746Z,1015.86
2022-09-23T08:45:52.766Z,1015.89
2022-09-23T08:46:52.732Z,1015.86
2022-09-23T08:47:52.726Z,1015.88
2022-09-23T08:48:52.722Z,1015.88
2022-09-23T08:49:52.715Z,1015.86
2022-09-23T08:50:52.711Z,1015.81
2022-09-23T08:51:52.703Z,1015.82
2022-09-23T08:52:52.701Z,1015.79
2022-09-23T08:53:52.687Z,1015.82
2022-09-23T08:54:55.404Z,1015.78
2022-09-23T08:55:52.677Z,1015.77
2022-09-23T08:56:52.674Z,1015.78
2022-09-23T08:58:14.133Z,1015.79
2022-09-23T08:58:52.658Z,1015.79
2022-09-23T08:59:52.651Z,1015.82
2022-09-23T09:00:52.652Z,1015.79
2022-09-23T09:01:52.674Z,1015.82
2022-09-23T09:02:52.675Z,1015.80
2022-09-23T09:03:52.625Z,1015.80
2022-09-23T09:04:52.621Z,1015.85
2022-09-23T09:05:54.474Z,1015.81
2022-09-23T09:06:54.378Z,1015.82
2022-09-23T09:07:52.601Z,1015.80
2022-09-23T09:08:52.596Z,1015.81
2022-09-23T09:09:52.591Z,1015.83
2022-09-23T09:10:52.587Z,1015.80
2022-09-23T09:11:52.578Z,1015.81
2022-09-23T09:12:52.575Z,1015.84
2022-09-23T09:13:52.564Z,1015.82
2022-09-23T09:14:52.560Z,1015.82
2022-09-23T09:15:55.128Z,1015.81
2022-09-23T09:17:00.900Z,1015.85
2022-09-23T09:17:52.543Z,1015.85
2022-09-23T09:18:52.534Z,1015.84
2022-09-23T09:19:52.526Z,1015.79
2022-09-23T09:20:52.523Z,1015.80
2022-09-23T09:21:52.522Z,1015.78
2022-09-23T09:22:52.510Z,1015.79
2022-09-23T09:23:52.510Z,1015.79
2022-09-23T09:24:52.497Z,1015.81
2022-09-23T09:25:52.495Z,1015.80
2022-09-23T09:26:52.484Z,1015.84
2022-09-23T09:27:52.487Z,1015.81
2022-09-23T09:28:52.476Z,1015.81
2022-09-23T09:29:52.468Z,1015.78
2022-09-23T09:30:52.652Z,1015.76
2022-09-23T09:31:52.460Z,1015.75
2022-09-23T09:32:52.450Z,1015.76
2022-09-23T09:33:52.447Z,1015.73
2022-09-23T09:34:52.439Z,1015.73
2022-09-23T09:35:52.436Z,1015.74
2022-09-23T09:36:52.427Z,1015.72
2022-09-23T09:37:53.608Z,1015.69
2022-09-23T09:38:52.418Z,1015.70
2022-09-23T09:39:52.412Z,1015.67
2022-09-23T09:40:52.480Z,1015.66
2022-09-23T09:41:52.398Z,1015.64
2022-09-23T09:42:52.394Z,1015.64
2022-09-23T09:43:52.397Z,1015.59
2022-09-23T09:44:52.382Z,1015.63
2022-09-23T09:45:56.753Z,1015.58
2022-09-23T09:46:52.425Z,1015.57
2022-09-23T09:47:52.366Z,1015.53
2022-09-23T09:48:52.358Z,1015.53
2022-09-23T09:49:52.352Z,1015.52
2022-09-23T09:50:52.351Z,1015.50
2022-09-23T09:51:52.341Z,1015.49
2022-09-23T09:52:52.284Z,1015.44
2022-09-23T09:53:52.277Z,1015.46
2022-09-23T09:54:52.270Z,1015.41
2022-09-23T09:55:52.266Z,1015.39
2022-09-23T09:56:52.260Z,1015.40
2022-09-23T09:57:52.276Z,1015.33
2022-09-23T09:58:52.247Z,1015.39
2022-09-23T09:59:52.241Z,1015.33
2022-09-23T10:00:52.238Z,1015.34
2022-09-23T10:01:52.245Z,1015.31
2022-09-23T10:02:52.221Z,1015.33
2022-09-23T10:03:56.995Z,1015.33
2022-09-23T10:04:52.241Z,1015.29
2022-09-23T10:05:52.244Z,1015.28
2022-09-23T10:06:52.206Z,1015.29
2022-09-23T10:07:52.196Z,1015.31
2022-09-23T10:08:52.193Z,1015.33
2022-09-23T10:09:52.189Z,1015.33
2022-09-23T10:10:52.182Z,1015.28
2022-09-23T10:11:52.187Z,1015.27
2022-09-23T10:12:52.171Z,1015.27
2022-09-23T10:13:52.165Z,1015.22
2022-09-23T10:14:52.158Z,1015.23
2022-09-23T10:15:52.153Z,1015.24
2022-09-23T10:16:52.176Z,1015.29
2022-09-23T10:17:52.145Z,1015.27
2022-09-23T10:18:52.138Z,1015.22
2022-09-23T10:19:52.130Z,1015.23
2022-09-23T10:20:52.128Z,1015.22
2022-09-23T10:21:52.122Z,1015.24
2022-09-23T10:22:52.117Z,1015.20
2022-09-23T10:23:52.112Z,1015.18
2022-09-23T10:24:52.116Z,1015.16
2022-09-23T10:25:52.102Z,1015.21
2022-09-23T10:26:52.100Z,1015.19
2022-09-23T10:27:52.093Z,1015.21
2022-09-23T10:28:52.088Z,1015.19
2022-09-23T10:29:52.176Z,1015.17
2022-09-23T10:30:52.091Z,1015.17
2022-09-23T10:31:52.081Z,1015.17
2022-09-23T10:32:52.089Z,1015.17
2022-09-23T10:33:52.085Z,1015.18
2022-09-23T10:34:52.058Z,1015.18
2022-09-23T10:35:52.054Z,1015.18
2022-09-23T10:36:52.051Z,1015.17
2022-09-23T10:37:52.049Z,1015.17
2022-09-23T10:38:52.041Z,1015.15
2022-09-23T10:39:52.039Z,1015.15
2022-09-23T10:40:52.190Z,1015.13
2022-09-23T10:41:52.030Z,1015.08
2022-09-23T10:42:52.020Z,1015.12
2022-09-23T10:43:52.037Z,1015.13
2022-09-23T10:44:52.015Z,1015.18
2022-09-23T10:45:52.033Z,1015.14
2022-09-23T10:46:52.008Z,1015.17
2022-09-23T10:47:52.005Z,1015.10
2022-09-23T10:48:52.000Z,1015.13
2022-09-23T10:49:51.997Z,1015.12
2022-09-23T10:50:51.989Z,1015.12
2022-09-23T10:51:51.988Z,1015.12
2022-09-23T10:52:51.979Z,1015.11
2022-09-23T10:53:51.981Z,1015.11
2022-09-23T10:54:51.973Z,1015.09
2022-09-23T10:55:51.970Z,1015.08
2022-09-23T10:56:51.965Z,1015.08
2022-09-23T10:57:51.968Z,1015.05
2022-09-23T10:58:51.959Z,1015.07
2022-09-23T10:59:51.952Z,1015.02
2022-09-23T11:00:51.953Z,1015.05
2022-09-23T11:01:52.010Z,1015.07
2022-09-23T11:02:51.943Z,1015.04
2022-09-23T11:03:51.939Z,1015.02
2022-09-23T11:04:51.974Z,1015.02
2022-09-23T11:05:51.929Z,1014.99
2022-09-23T11:06:51.927Z,1014.95
2022-09-23T11:07:51.924Z,1014.94
2022-09-23T11:08:51.918Z,1014.97
2022-09-23T11:09:51.915Z,1014.95
2022-09-23T11:10:52.027Z,1014.95
2022-09-23T11:11:51.913Z,1014.96
2022-09-23T11:12:51.903Z,1014.92
2022-09-23T11:13:54.386Z,1014.92
2022-09-23T11:14:51.893Z,1014.88
2022-09-23T11:15:51.892Z,1014.84
2022-09-23T11:16:51.912Z,1014.84
2022-09-23T11:17:51.887Z,1014.85
2022-09-23T11:18:51.885Z,1014.85
2022-09-23T11:19:51.878Z,1014.83
2022-09-23T11:20:51.877Z,1014.85
2022-09-23T11:21:51.870Z,1014.80
2022-09-23T11:22:51.867Z,1014.78
2022-09-23T11:23:51.863Z,1014.75
2022-09-23T11:24:51.860Z,1014.73
2022-09-23T11:25:51.855Z,1014.72
2022-09-23T11:26:51.851Z,1014.71
2022-09-23T11:27:51.848Z,1014.72
2022-09-23T11:28:51.842Z,1014.67
2022-09-23T11:29:51.843Z,1014.66
2022-09-23T11:30:51.889Z,1014.62
2022-09-23T11:31:54.109Z,1014.63
2022-09-23T11:32:51.906Z,1014.60
2022-09-23T11:33:51.831Z,1014.61
2022-09-23T11:34:54.834Z,1014.57
2022-09-23T11:35:51.819Z,1014.56
2022-09-23T11:36:51.817Z,1014.50
2022-09-23T11:37:51.812Z,1014.54
2022-09-23T11:38:51.812Z,1014.54
2022-09-23T11:39:51.820Z,1014.52
2022-09-23T11:40:51.968Z,1014.52
2022-09-23T11:41:51.798Z,1014.51
2022-09-23T11:42:51.796Z,1014.52
2022-09-23T11:43:51.791Z,1014.49
2022-09-23T11:44:51.786Z,1014.49
2022-09-23T11:45:51.818Z,1014.44
2022-09-23T11:46:51.782Z,1014.43
2022-09-23T11:47:51.778Z,1014.34
2022-09-23T11:48:51.773Z,1014.37
2022-09-23T11:49:51.769Z,1014.38
2022-09-23T11:50:51.771Z,1014.38
2022-09-23T11:51:51.763Z,1014.38
2022-09-23T11:52:51.761Z,1014.34
2022-09-23T11:53:51.756Z,1014.36
2022-09-23T11:54:51.752Z,1014.35
2022-09-23T11:55:57.784Z,1014.33
2022-09-23T11:56:51.746Z,1014.32
2022-09-23T11:57:51.740Z,1014.32
2022-09-23T11:58:56.028Z,1014.33
2022-09-23T11:59:51.745Z,1014.32
2022-09-23T12:00:56.185Z,1014.28
2022-09-23T12:01:51.780Z,1014.26
2022-09-23T12:03:02.394Z,1014.21
2022-09-23T12:03:51.870Z,1014.24
2022-09-23T12:04:57.480Z,1014.22
2022-09-23T12:05:51.883Z,1014.20
2022-09-23T12:06:51.705Z,1014.19
2022-09-23T12:07:51.702Z,1014.17
2022-09-23T12:08:51.714Z,1014.18
2022-09-23T12:09:58.571Z,1014.17
2022-09-23T12:10:51.698Z,1014.12
2022-09-23T12:11:51.686Z,1014.10
2022-09-23T12:12:51.683Z,1014.10
2022-09-23T12:13:51.686Z,1014.13
2022-09-23T12:14:51.691Z,1014.11
2022-09-23T12:15:51.673Z,1014.10
2022-09-23T12:16:51.684Z,1014.09
2022-09-23T12:17:51.676Z,1014.07
2022-09-23T12:18:51.661Z,1014.07
2022-09-23T12:19:51.658Z,1014.03
2022-09-23T12:20:51.654Z,1014.04
2022-09-23T12:21:51.759Z,1014.05
2022-09-23T12:22:51.647Z,1014.00
2022-09-23T12:23:51.637Z,1014.04
2022-09-23T12:24:51.638Z,1014.04
2022-09-23T12:25:51.635Z,1014.04
2022-09-23T12:26:51.630Z,1014.04
2022-09-23T12:27:51.626Z,1014.02
2022-09-23T12:28:51.622Z,1014.03
2022-09-23T12:29:51.619Z,1013.98
2022-09-23T12:30:51.703Z,1013.98